sensor_id;sensor_type;location;lat;lon;timestamp;temperature;humidity
16315;DHT22;8266;52.150;4.768;2023-04-25T00:02:20;8.90;99.90
16315;DHT22;8266;52.150;4.768;2023-04-25T00:04:48;8.80;99.90
16315;DHT22;8266;52.150;4.768;2023-04-25T00:07:16;8.80;99.90
16315;DHT22;8266;52.150;4.768;2023-04-25T00:09:44;8.70;99.90
16315;DHT22;8266;52.150;4.768;2023-04-25T00:12:11;8.80;99.90
16315;DHT22;8266;52.150;4.768;2023-04-25T00:14:38;8.80;99.90
16315;DHT22;8266;52.150;4.768;2023-04-25T00:17:05;8.60;99.90
16315;DHT22;8266;52.150;4.768;2023-04-25T00:19:32;8.60;99.90
16315;DHT22;8266;52.150;4.768;2023-04-25T00:22:00;8.60;99.90
16315;DHT22;8266;52.150;4.768;2023-04-25T00:24:28;8.60;99.90
16315;DHT22;8266;52.150;4.768;2023-04-25T00:26:55;8.50;99.90
16315;DHT22;8266;52.150;4.768;2023-04-25T00:29:22;8.50;99.90
16315;DHT22;8266;52.150;4.768;2023-04-25T00:31:49;8.40;99.90
16315;DHT22;8266;52.150;4.768;2023-04-25T00:34:16;8.40;99.90
16315;DHT22;8266;52.150;4.768;2023-04-25T00:36:43;8.30;99.90
16315;DHT22;8266;52.150;4.768;2023-04-25T00:39:10;8.30;99.90
16315;DHT22;8266;52.150;4.768;2023-04-25T00:41:39;8.30;99.90
16315;DHT22;8266;52.150;4.768;2023-04-25T00:44:09;8.20;99.90
16315;DHT22;8266;52.150;4.768;2023-04-25T00:46:36;8.20;99.90
16315;DHT22;8266;52.150;4.768;2023-04-25T00:49:03;8.20;99.90
16315;DHT22;8266;52.150;4.768;2023-04-25T00:51:31;8.20;99.90
16315;DHT22;8266;52.150;4.768;2023-04-25T00:53:59;8.10;99.90
16315;DHT22;8266;52.150;4.768;2023-04-25T00:56:27;8.20;99.90
16315;DHT22;8266;52.150;4.768;2023-04-25T00:58:56;8.10;99.90
16315;DHT22;8266;52.150;4.768;2023-04-25T01:01:23;8.10;99.90
16315;DHT22;8266;52.150;4.768;2023-04-25T01:03:50;8.10;99.90
16315;DHT22;8266;52.150;4.768;2023-04-25T01:06:18;8.10;99.90
16315;DHT22;8266;52.150;4.768;2023-04-25T01:08:45;8.10;99.90
16315;DHT22;8266;52.150;4.768;2023-04-25T01:11:12;8.10;99.90
16315;DHT22;8266;52.150;4.768;2023-04-25T01:13:39;8.10;99.90
16315;DHT22;8266;52.150;4.768;2023-04-25T01:16:07;8.20;99.90
16315;DHT22;8266;52.150;4.768;2023-04-25T01:18:34;8.20;99.90
16315;DHT22;8266;52.150;4.768;2023-04-25T01:21:07;8.20;99.90
16315;DHT22;8266;52.150;4.768;2023-04-25T01:23:35;8.20;99.90
16315;DHT22;8266;52.150;4.768;2023-04-25T01:26:03;8.20;99.90
16315;DHT22;8266;52.150;4.768;2023-04-25T01:28:30;8.20;99.90
16315;DHT22;8266;52.150;4.768;2023-04-25T01:30:58;8.20;99.90
16315;DHT22;8266;52.150;4.768;2023-04-25T01:33:26;8.30;99.90
16315;DHT22;8266;52.150;4.768;2023-04-25T01:35:53;8.20;99.90
16315;DHT22;8266;52.150;4.768;2023-04-25T01:38:22;8.20;99.90
16315;DHT22;8266;52.150;4.768;2023-04-25T01:40:49;8.20;99.90
16315;DHT22;8266;52.150;4.768;2023-04-25T01:43:17;8.20;99.90
16315;DHT22;8266;52.150;4.768;2023-04-25T01:45:44;8.20;99.90
16315;DHT22;8266;52.150;4.768;2023-04-25T01:48:12;8.20;99.90
16315;DHT22;8266;52.150;4.768;2023-04-25T01:50:41;8.20;99.90
16315;DHT22;8266;52.150;4.768;2023-04-25T01:53:09;8.20;99.90
16315;DHT22;8266;52.150;4.768;2023-04-25T01:55:37;8.20;99.90
16315;DHT22;8266;52.150;4.768;2023-04-25T01:58:04;8.10;99.90
16315;DHT22;8266;52.150;4.768;2023-04-25T02:00:35;8.10;99.90
16315;DHT22;8266;52.150;4.768;2023-04-25T02:03:03;8.10;99.90
16315;DHT22;8266;52.150;4.768;2023-04-25T02:05:34;8.10;99.90
16315;DHT22;8266;52.150;4.768;2023-04-25T02:08:02;8.00;99.90
16315;DHT22;8266;52.150;4.768;2023-04-25T02:10:29;8.00;99.90
16315;DHT22;8266;52.150;4.768;2023-04-25T02:12:58;8.00;99.90
16315;DHT22;8266;52.150;4.768;2023-04-25T02:15:25;8.00;99.90
16315;DHT22;8266;52.150;4.768;2023-04-25T02:17:52;8.00;99.90
16315;DHT22;8266;52.150;4.768;2023-04-25T02:20:20;8.00;99.90
16315;DHT22;8266;52.150;4.768;2023-04-25T02:22:47;8.00;99.90
16315;DHT22;8266;52.150;4.768;2023-04-25T02:25:14;8.10;99.90
16315;DHT22;8266;52.150;4.768;2023-04-25T02:27:42;8.10;99.90
16315;DHT22;8266;52.150;4.768;2023-04-25T02:30:11;8.10;99.90
16315;DHT22;8266;52.150;4.768;2023-04-25T02:32:39;8.20;99.90
16315;DHT22;8266;52.150;4.768;2023-04-25T02:35:07;8.20;99.90
16315;DHT22;8266;52.150;4.768;2023-04-25T02:37:35;8.20;99.90
16315;DHT22;8266;52.150;4.768;2023-04-25T02:40:03;8.30;99.90
16315;DHT22;8266;52.150;4.768;2023-04-25T02:42:30;8.30;99.90
16315;DHT22;8266;52.150;4.768;2023-04-25T02:44:57;8.30;99.90
16315;DHT22;8266;52.150;4.768;2023-04-25T02:47:26;8.30;99.90
16315;DHT22;8266;52.150;4.768;2023-04-25T02:49:53;8.30;99.90
16315;DHT22;8266;52.150;4.768;2023-04-25T02:52:20;8.40;99.90
16315;DHT22;8266;52.150;4.768;2023-04-25T02:54:47;8.40;99.90
16315;DHT22;8266;52.150;4.768;2023-04-25T02:57:14;8.40;99.90
16315;DHT22;8266;52.150;4.768;2023-04-25T02:59:41;8.40;99.90
16315;DHT22;8266;52.150;4.768;2023-04-25T03:02:08;8.40;99.90
16315;DHT22;8266;52.150;4.768;2023-04-25T03:04:36;8.40;99.90
16315;DHT22;8266;52.150;4.768;2023-04-25T03:07:04;8.50;99.90
16315;DHT22;8266;52.150;4.768;2023-04-25T03:09:31;8.40;99.90
16315;DHT22;8266;52.150;4.768;2023-04-25T03:11:58;8.40;99.90
16315;DHT22;8266;52.150;4.768;2023-04-25T03:14:25;8.40;99.90
16315;DHT22;8266;52.150;4.768;2023-04-25T03:16:52;8.40;99.90
16315;DHT22;8266;52.150;4.768;2023-04-25T03:19:19;8.40;99.90
16315;DHT22;8266;52.150;4.768;2023-04-25T03:21:48;8.40;99.90
16315;DHT22;8266;52.150;4.768;2023-04-25T03:24:15;8.30;99.90
16315;DHT22;8266;52.150;4.768;2023-04-25T03:26:42;8.30;99.90
16315;DHT22;8266;52.150;4.768;2023-04-25T03:29:09;8.30;99.90
16315;DHT22;8266;52.150;4.768;2023-04-25T03:31:36;8.30;99.90
16315;DHT22;8266;52.150;4.768;2023-04-25T03:34:03;8.30;99.90
16315;DHT22;8266;52.150;4.768;2023-04-25T03:36:30;8.30;99.90
16315;DHT22;8266;52.150;4.768;2023-04-25T03:38:59;8.30;99.90
16315;DHT22;8266;52.150;4.768;2023-04-25T03:41:26;8.30;99.90
16315;DHT22;8266;52.150;4.768;2023-04-25T03:43:53;8.30;99.90
16315;DHT22;8266;52.150;4.768;2023-04-25T03:46:20;8.30;99.90
16315;DHT22;8266;52.150;4.768;2023-04-25T03:48:47;8.30;99.90
16315;DHT22;8266;52.150;4.768;2023-04-25T03:51:14;8.30;99.90
16315;DHT22;8266;52.150;4.768;2023-04-25T03:53:41;8.30;99.90
16315;DHT22;8266;52.150;4.768;2023-04-25T03:56:09;8.20;99.90
16315;DHT22;8266;52.150;4.768;2023-04-25T03:58:36;8.20;99.90
16315;DHT22;8266;52.150;4.768;2023-04-25T04:01:03;8.20;99.90
16315;DHT22;8266;52.150;4.768;2023-04-25T04:03:33;8.10;99.90
16315;DHT22;8266;52.150;4.768;2023-04-25T04:06:00;8.20;99.90
16315;DHT22;8266;52.150;4.768;2023-04-25T04:08:28;8.20;99.90
16315;DHT22;8266;52.150;4.768;2023-04-25T04:10:55;8.10;99.90
16315;DHT22;8266;52.150;4.768;2023-04-25T04:13:25;8.10;99.90
16315;DHT22;8266;52.150;4.768;2023-04-25T04:15:52;8.10;99.90
16315;DHT22;8266;52.150;4.768;2023-04-25T04:18:19;8.10;99.90
16315;DHT22;8266;52.150;4.768;2023-04-25T04:20:46;8.10;99.90
16315;DHT22;8266;52.150;4.768;2023-04-25T04:23:13;8.00;99.90
16315;DHT22;8266;52.150;4.768;2023-04-25T04:25:40;8.10;99.90
16315;DHT22;8266;52.150;4.768;2023-04-25T04:28:08;8.00;99.90
16315;DHT22;8266;52.150;4.768;2023-04-25T04:30:37;8.00;99.90
16315;DHT22;8266;52.150;4.768;2023-04-25T04:33:04;8.00;99.90
16315;DHT22;8266;52.150;4.768;2023-04-25T04:35:32;8.00;99.90
16315;DHT22;8266;52.150;4.768;2023-04-25T04:38:00;8.00;99.90
16315;DHT22;8266;52.150;4.768;2023-04-25T04:40:27;8.00;99.90
16315;DHT22;8266;52.150;4.768;2023-04-25T04:42:54;8.00;99.90
16315;DHT22;8266;52.150;4.768;2023-04-25T04:45:21;8.00;99.90
16315;DHT22;8266;52.150;4.768;2023-04-25T04:47:50;8.00;99.90
16315;DHT22;8266;52.150;4.768;2023-04-25T04:50:17;8.10;99.90
16315;DHT22;8266;52.150;4.768;2023-04-25T04:52:45;8.10;99.90
16315;DHT22;8266;52.150;4.768;2023-04-25T04:55:12;8.10;99.90
16315;DHT22;8266;52.150;4.768;2023-04-25T04:57:39;8.20;99.90
16315;DHT22;8266;52.150;4.768;2023-04-25T05:00:07;8.20;99.90
16315;DHT22;8266;52.150;4.768;2023-04-25T05:02:37;8.20;99.90
16315;DHT22;8266;52.150;4.768;2023-04-25T05:05:06;8.20;99.90
16315;DHT22;8266;52.150;4.768;2023-04-25T05:07:33;8.30;99.90
16315;DHT22;8266;52.150;4.768;2023-04-25T05:10:00;8.30;99.90
16315;DHT22;8266;52.150;4.768;2023-04-25T05:12:27;8.30;99.90
16315;DHT22;8266;52.150;4.768;2023-04-25T05:14:54;8.30;99.90
16315;DHT22;8266;52.150;4.768;2023-04-25T05:17:21;8.40;99.90
16315;DHT22;8266;52.150;4.768;2023-04-25T05:19:48;8.40;99.90
16315;DHT22;8266;52.150;4.768;2023-04-25T05:22:16;8.40;99.90
16315;DHT22;8266;52.150;4.768;2023-04-25T05:24:43;8.50;99.90
16315;DHT22;8266;52.150;4.768;2023-04-25T05:27:10;8.50;99.90
16315;DHT22;8266;52.150;4.768;2023-04-25T05:29:37;8.50;99.90
16315;DHT22;8266;52.150;4.768;2023-04-25T05:32:05;8.60;99.90
16315;DHT22;8266;52.150;4.768;2023-04-25T05:34:33;8.60;99.90
16315;DHT22;8266;52.150;4.768;2023-04-25T05:37:00;8.60;99.90
16315;DHT22;8266;52.150;4.768;2023-04-25T05:39:28;8.70;99.90
16315;DHT22;8266;52.150;4.768;2023-04-25T05:41:55;8.70;99.90
16315;DHT22;8266;52.150;4.768;2023-04-25T05:44:22;8.70;99.90
16315;DHT22;8266;52.150;4.768;2023-04-25T05:46:49;8.80;99.90
16315;DHT22;8266;52.150;4.768;2023-04-25T05:49:16;8.80;99.90
16315;DHT22;8266;52.150;4.768;2023-04-25T05:51:43;8.80;99.90
16315;DHT22;8266;52.150;4.768;2023-04-25T05:54:10;8.90;99.90
16315;DHT22;8266;52.150;4.768;2023-04-25T05:56:38;8.90;99.90
16315;DHT22;8266;52.150;4.768;2023-04-25T05:59:06;9.00;99.90
16315;DHT22;8266;52.150;4.768;2023-04-25T06:01:32;9.10;99.90
16315;DHT22;8266;52.150;4.768;2023-04-25T06:03:59;9.20;99.90
16315;DHT22;8266;52.150;4.768;2023-04-25T06:06:27;9.20;99.90
16315;DHT22;8266;52.150;4.768;2023-04-25T06:08:54;9.30;99.90
16315;DHT22;8266;52.150;4.768;2023-04-25T06:11:21;9.40;99.90
16315;DHT22;8266;52.150;4.768;2023-04-25T06:13:49;9.40;99.90
16315;DHT22;8266;52.150;4.768;2023-04-25T06:16:16;9.50;99.90
16315;DHT22;8266;52.150;4.768;2023-04-25T06:18:44;9.50;99.90
16315;DHT22;8266;52.150;4.768;2023-04-25T06:21:10;9.60;99.90
16315;DHT22;8266;52.150;4.768;2023-04-25T06:23:37;9.60;99.90
16315;DHT22;8266;52.150;4.768;2023-04-25T06:26:04;9.70;99.90
16315;DHT22;8266;52.150;4.768;2023-04-25T06:28:31;9.70;99.90
16315;DHT22;8266;52.150;4.768;2023-04-25T06:31:00;9.80;99.90
16315;DHT22;8266;52.150;4.768;2023-04-25T06:33:27;9.90;99.90
16315;DHT22;8266;52.150;4.768;2023-04-25T06:35:54;9.90;99.90
16315;DHT22;8266;52.150;4.768;2023-04-25T06:38:21;9.90;99.90
16315;DHT22;8266;52.150;4.768;2023-04-25T06:40:48;10.00;99.90
16315;DHT22;8266;52.150;4.768;2023-04-25T06:43:15;10.00;99.90
16315;DHT22;8266;52.150;4.768;2023-04-25T06:45:42;10.00;99.90
16315;DHT22;8266;52.150;4.768;2023-04-25T06:48:10;10.10;99.90
16315;DHT22;8266;52.150;4.768;2023-04-25T06:50:37;10.10;99.90
16315;DHT22;8266;52.150;4.768;2023-04-25T06:53:04;10.20;99.90
16315;DHT22;8266;52.150;4.768;2023-04-25T06:55:31;10.30;99.90
16315;DHT22;8266;52.150;4.768;2023-04-25T06:57:58;10.40;99.90
16315;DHT22;8266;52.150;4.768;2023-04-25T07:00:25;10.50;99.90
16315;DHT22;8266;52.150;4.768;2023-04-25T07:02:54;10.60;99.90
16315;DHT22;8266;52.150;4.768;2023-04-25T07:05:22;10.70;99.90
16315;DHT22;8266;52.150;4.768;2023-04-25T07:07:49;10.80;99.90
16315;DHT22;8266;52.150;4.768;2023-04-25T07:10:16;10.90;99.90
16315;DHT22;8266;52.150;4.768;2023-04-25T07:12:43;10.90;99.90
16315;DHT22;8266;52.150;4.768;2023-04-25T07:15:10;10.90;99.90
16315;DHT22;8266;52.150;4.768;2023-04-25T07:17:37;10.90;99.90
16315;DHT22;8266;52.150;4.768;2023-04-25T07:20:05;10.80;99.90
16315;DHT22;8266;52.150;4.768;2023-04-25T07:22:34;10.80;99.90
16315;DHT22;8266;52.150;4.768;2023-04-25T07:25:01;11.00;99.90
16315;DHT22;8266;52.150;4.768;2023-04-25T07:27:30;11.20;99.90
16315;DHT22;8266;52.150;4.768;2023-04-25T07:29:56;11.60;99.90
16315;DHT22;8266;52.150;4.768;2023-04-25T07:32:24;12.00;99.90
16315;DHT22;8266;52.150;4.768;2023-04-25T07:34:52;12.50;99.90
16315;DHT22;8266;52.150;4.768;2023-04-25T07:37:18;13.10;99.90
16315;DHT22;8266;52.150;4.768;2023-04-25T07:39:47;13.60;99.90
16315;DHT22;8266;52.150;4.768;2023-04-25T07:42:14;14.00;99.90
16315;DHT22;8266;52.150;4.768;2023-04-25T07:44:41;14.50;99.90
16315;DHT22;8266;52.150;4.768;2023-04-25T07:47:08;14.90;99.90
16315;DHT22;8266;52.150;4.768;2023-04-25T07:49:36;15.30;99.90
16315;DHT22;8266;52.150;4.768;2023-04-25T07:52:04;15.70;99.90
16315;DHT22;8266;52.150;4.768;2023-04-25T07:54:31;16.10;99.90
16315;DHT22;8266;52.150;4.768;2023-04-25T07:57:00;16.40;99.90
16315;DHT22;8266;52.150;4.768;2023-04-25T07:59:28;16.60;99.90
16315;DHT22;8266;52.150;4.768;2023-04-25T08:01:55;16.80;99.90
16315;DHT22;8266;52.150;4.768;2023-04-25T08:04:23;16.80;99.90
16315;DHT22;8266;52.150;4.768;2023-04-25T08:06:50;16.70;99.90
16315;DHT22;8266;52.150;4.768;2023-04-25T08:09:18;16.40;99.90
16315;DHT22;8266;52.150;4.768;2023-04-25T08:11:45;16.20;99.90
16315;DHT22;8266;52.150;4.768;2023-04-25T08:14:13;16.10;99.90
16315;DHT22;8266;52.150;4.768;2023-04-25T08:16:40;16.10;99.90
16315;DHT22;8266;52.150;4.768;2023-04-25T08:19:07;16.30;99.90
16315;DHT22;8266;52.150;4.768;2023-04-25T08:21:34;16.40;99.90
16315;DHT22;8266;52.150;4.768;2023-04-25T08:24:01;16.50;99.90
16315;DHT22;8266;52.150;4.768;2023-04-25T08:26:29;16.60;99.90
16315;DHT22;8266;52.150;4.768;2023-04-25T08:28:56;16.50;99.90
16315;DHT22;8266;52.150;4.768;2023-04-25T08:31:24;16.30;99.90
16315;DHT22;8266;52.150;4.768;2023-04-25T08:33:51;16.10;99.90
16315;DHT22;8266;52.150;4.768;2023-04-25T08:36:18;15.70;99.90
16315;DHT22;8266;52.150;4.768;2023-04-25T08:38:45;15.40;99.90
16315;DHT22;8266;52.150;4.768;2023-04-25T08:41:13;15.20;99.90
16315;DHT22;8266;52.150;4.768;2023-04-25T08:43:42;15.00;99.90
16315;DHT22;8266;52.150;4.768;2023-04-25T08:46:11;15.10;99.90
16315;DHT22;8266;52.150;4.768;2023-04-25T08:48:40;15.20;99.90
16315;DHT22;8266;52.150;4.768;2023-04-25T08:51:10;15.20;99.90
16315;DHT22;8266;52.150;4.768;2023-04-25T08:53:41;15.10;99.90
16315;DHT22;8266;52.150;4.768;2023-04-25T08:56:10;15.00;99.90
16315;DHT22;8266;52.150;4.768;2023-04-25T08:58:39;14.80;99.90
16315;DHT22;8266;52.150;4.768;2023-04-25T09:01:07;14.60;99.90
16315;DHT22;8266;52.150;4.768;2023-04-25T09:03:34;14.50;99.90
16315;DHT22;8266;52.150;4.768;2023-04-25T09:06:03;14.30;99.90
16315;DHT22;8266;52.150;4.768;2023-04-25T09:08:30;14.20;99.90
16315;DHT22;8266;52.150;4.768;2023-04-25T09:10:57;14.00;99.90
16315;DHT22;8266;52.150;4.768;2023-04-25T09:13:25;13.70;99.90
16315;DHT22;8266;52.150;4.768;2023-04-25T09:15:54;13.40;99.90
16315;DHT22;8266;52.150;4.768;2023-04-25T09:18:24;13.00;99.90
16315;DHT22;8266;52.150;4.768;2023-04-25T09:20:52;12.50;99.90
16315;DHT22;8266;52.150;4.768;2023-04-25T09:23:22;12.20;99.90
16315;DHT22;8266;52.150;4.768;2023-04-25T09:25:51;11.70;99.90
16315;DHT22;8266;52.150;4.768;2023-04-25T09:28:24;11.40;99.90
16315;DHT22;8266;52.150;4.768;2023-04-25T09:30:55;11.00;99.90
16315;DHT22;8266;52.150;4.768;2023-04-25T09:33:27;10.70;99.90
16315;DHT22;8266;52.150;4.768;2023-04-25T09:36:02;10.50;99.90
16315;DHT22;8266;52.150;4.768;2023-04-25T09:38:32;10.40;99.90
16315;DHT22;8266;52.150;4.768;2023-04-25T09:40:59;10.30;99.90
16315;DHT22;8266;52.150;4.768;2023-04-25T09:43:27;10.40;99.90
16315;DHT22;8266;52.150;4.768;2023-04-25T09:45:55;10.50;99.90
16315;DHT22;8266;52.150;4.768;2023-04-25T09:48:26;10.60;99.90
16315;DHT22;8266;52.150;4.768;2023-04-25T09:51:04;10.90;99.90
16315;DHT22;8266;52.150;4.768;2023-04-25T09:53:33;11.20;99.90
16315;DHT22;8266;52.150;4.768;2023-04-25T09:56:04;11.50;99.90
16315;DHT22;8266;52.150;4.768;2023-04-25T09:58:32;11.80;99.90
16315;DHT22;8266;52.150;4.768;2023-04-25T10:01:02;12.30;99.90
16315;DHT22;8266;52.150;4.768;2023-04-25T10:03:30;12.70;99.90
16315;DHT22;8266;52.150;4.768;2023-04-25T10:05:59;13.20;99.90
16315;DHT22;8266;52.150;4.768;2023-04-25T10:08:33;13.60;99.90
16315;DHT22;8266;52.150;4.768;2023-04-25T10:11:01;14.10;99.90
16315;DHT22;8266;52.150;4.768;2023-04-25T10:13:29;14.40;99.90
16315;DHT22;8266;52.150;4.768;2023-04-25T10:15:57;14.80;99.90
16315;DHT22;8266;52.150;4.768;2023-04-25T10:18:25;15.20;99.90
16315;DHT22;8266;52.150;4.768;2023-04-25T10:20:54;15.50;99.90
16315;DHT22;8266;52.150;4.768;2023-04-25T10:23:21;15.80;99.90
16315;DHT22;8266;52.150;4.768;2023-04-25T10:25:50;16.00;99.90
16315;DHT22;8266;52.150;4.768;2023-04-25T10:28:18;16.10;99.90
16315;DHT22;8266;52.150;4.768;2023-04-25T10:30:58;16.20;99.90
16315;DHT22;8266;52.150;4.768;2023-04-25T10:33:35;16.10;99.90
16315;DHT22;8266;52.150;4.768;2023-04-25T10:36:12;16.00;99.90
16315;DHT22;8266;52.150;4.768;2023-04-25T10:38:40;15.80;99.90
16315;DHT22;8266;52.150;4.768;2023-04-25T10:41:10;15.50;99.90
16315;DHT22;8266;52.150;4.768;2023-04-25T10:43:39;15.10;99.90
16315;DHT22;8266;52.150;4.768;2023-04-25T10:46:14;14.60;99.90
16315;DHT22;8266;52.150;4.768;2023-04-25T10:48:46;14.00;99.90
16315;DHT22;8266;52.150;4.768;2023-04-25T10:51:19;13.40;99.90
16315;DHT22;8266;52.150;4.768;2023-04-25T10:53:47;12.80;99.90
16315;DHT22;8266;52.150;4.768;2023-04-25T10:56:19;12.30;99.90
16315;DHT22;8266;52.150;4.768;2023-04-25T10:58:47;11.90;99.90
16315;DHT22;8266;52.150;4.768;2023-04-25T11:01:16;11.50;99.90
16315;DHT22;8266;52.150;4.768;2023-04-25T11:03:46;11.30;99.90
16315;DHT22;8266;52.150;4.768;2023-04-25T11:06:22;11.20;99.90
16315;DHT22;8266;52.150;4.768;2023-04-25T11:08:50;11.30;99.90
16315;DHT22;8266;52.150;4.768;2023-04-25T11:11:19;11.40;99.90
16315;DHT22;8266;52.150;4.768;2023-04-25T11:13:48;11.60;99.90
16315;DHT22;8266;52.150;4.768;2023-04-25T11:16:15;11.90;99.90
16315;DHT22;8266;52.150;4.768;2023-04-25T11:18:42;12.20;99.90
16315;DHT22;8266;52.150;4.768;2023-04-25T11:21:10;12.50;99.90
16315;DHT22;8266;52.150;4.768;2023-04-25T11:23:37;12.70;99.90
16315;DHT22;8266;52.150;4.768;2023-04-25T11:26:04;13.00;99.90
16315;DHT22;8266;52.150;4.768;2023-04-25T11:28:32;13.30;99.90
16315;DHT22;8266;52.150;4.768;2023-04-25T11:30:59;13.40;99.90
16315;DHT22;8266;52.150;4.768;2023-04-25T11:33:26;13.50;99.90
16315;DHT22;8266;52.150;4.768;2023-04-25T11:35:54;13.50;99.90
16315;DHT22;8266;52.150;4.768;2023-04-25T11:38:22;13.50;99.90
16315;DHT22;8266;52.150;4.768;2023-04-25T11:40:50;13.50;99.90
16315;DHT22;8266;52.150;4.768;2023-04-25T11:43:18;13.50;99.90
16315;DHT22;8266;52.150;4.768;2023-04-25T11:45:49;13.50;99.90
16315;DHT22;8266;52.150;4.768;2023-04-25T11:48:16;13.60;99.90
16315;DHT22;8266;52.150;4.768;2023-04-25T11:50:43;13.70;99.90
16315;DHT22;8266;52.150;4.768;2023-04-25T11:53:10;13.80;99.90
16315;DHT22;8266;52.150;4.768;2023-04-25T11:55:38;13.90;99.90
16315;DHT22;8266;52.150;4.768;2023-04-25T11:58:05;14.00;99.90
16315;DHT22;8266;52.150;4.768;2023-04-25T12:00:34;14.10;99.90
16315;DHT22;8266;52.150;4.768;2023-04-25T12:03:03;14.20;99.90
16315;DHT22;8266;52.150;4.768;2023-04-25T12:05:31;14.40;99.90
16315;DHT22;8266;52.150;4.768;2023-04-25T12:08:10;14.50;99.90
16315;DHT22;8266;52.150;4.768;2023-04-25T12:10:39;14.50;99.90
16315;DHT22;8266;52.150;4.768;2023-04-25T12:13:20;14.50;99.90
16315;DHT22;8266;52.150;4.768;2023-04-25T12:15:47;14.50;99.90
16315;DHT22;8266;52.150;4.768;2023-04-25T12:18:19;14.60;99.90
16315;DHT22;8266;52.150;4.768;2023-04-25T12:20:46;14.50;99.90
16315;DHT22;8266;52.150;4.768;2023-04-25T12:23:14;14.40;99.90
16315;DHT22;8266;52.150;4.768;2023-04-25T12:25:41;14.30;99.90
16315;DHT22;8266;52.150;4.768;2023-04-25T12:28:14;14.30;99.90
16315;DHT22;8266;52.150;4.768;2023-04-25T12:30:58;14.30;99.90
16315;DHT22;8266;52.150;4.768;2023-04-25T12:33:28;14.30;99.90
16315;DHT22;8266;52.150;4.768;2023-04-25T12:35:56;14.40;99.90
16315;DHT22;8266;52.150;4.768;2023-04-25T12:38:25;14.50;99.90
16315;DHT22;8266;52.150;4.768;2023-04-25T12:40:52;14.50;99.90
16315;DHT22;8266;52.150;4.768;2023-04-25T12:43:19;14.60;99.90
16315;DHT22;8266;52.150;4.768;2023-04-25T12:45:47;14.60;99.90
16315;DHT22;8266;52.150;4.768;2023-04-25T12:48:15;14.60;99.90
16315;DHT22;8266;52.150;4.768;2023-04-25T12:50:43;14.60;99.90
16315;DHT22;8266;52.150;4.768;2023-04-25T12:53:11;14.60;99.90
16315;DHT22;8266;52.150;4.768;2023-04-25T12:55:38;14.60;99.90
16315;DHT22;8266;52.150;4.768;2023-04-25T12:58:05;14.80;99.90
16315;DHT22;8266;52.150;4.768;2023-04-25T13:00:33;14.80;99.90
16315;DHT22;8266;52.150;4.768;2023-04-25T13:03:00;14.90;99.90
16315;DHT22;8266;52.150;4.768;2023-04-25T13:05:27;14.90;99.90
16315;DHT22;8266;52.150;4.768;2023-04-25T13:07:57;14.90;99.90
16315;DHT22;8266;52.150;4.768;2023-04-25T13:10:25;15.00;99.90
16315;DHT22;8266;52.150;4.768;2023-04-25T13:12:51;15.00;99.90
16315;DHT22;8266;52.150;4.768;2023-04-25T13:15:19;15.00;99.90
16315;DHT22;8266;52.150;4.768;2023-04-25T13:17:46;15.00;99.90
16315;DHT22;8266;52.150;4.768;2023-04-25T13:20:13;14.80;99.90
16315;DHT22;8266;52.150;4.768;2023-04-25T13:22:42;14.80;99.90
16315;DHT22;8266;52.150;4.768;2023-04-25T13:25:12;14.60;99.90
16315;DHT22;8266;52.150;4.768;2023-04-25T13:27:39;14.50;99.90
16315;DHT22;8266;52.150;4.768;2023-04-25T13:30:07;14.50;99.90
16315;DHT22;8266;52.150;4.768;2023-04-25T13:32:34;14.40;99.90
16315;DHT22;8266;52.150;4.768;2023-04-25T13:35:03;14.30;99.90
16315;DHT22;8266;52.150;4.768;2023-04-25T13:37:30;14.30;99.90
16315;DHT22;8266;52.150;4.768;2023-04-25T13:39:59;14.30;99.90
16315;DHT22;8266;52.150;4.768;2023-04-25T13:42:29;14.40;99.90
16315;DHT22;8266;52.150;4.768;2023-04-25T13:44:56;14.40;99.90
16315;DHT22;8266;52.150;4.768;2023-04-25T13:47:23;14.50;99.90
16315;DHT22;8266;52.150;4.768;2023-04-25T13:49:50;14.50;99.90
16315;DHT22;8266;52.150;4.768;2023-04-25T13:52:18;14.60;99.90
16315;DHT22;8266;52.150;4.768;2023-04-25T13:54:45;14.70;99.90
16315;DHT22;8266;52.150;4.768;2023-04-25T13:57:12;14.80;99.90
16315;DHT22;8266;52.150;4.768;2023-04-25T13:59:41;14.90;99.90
16315;DHT22;8266;52.150;4.768;2023-04-25T14:02:08;15.00;99.90
16315;DHT22;8266;52.150;4.768;2023-04-25T14:04:35;15.10;99.90
16315;DHT22;8266;52.150;4.768;2023-04-25T14:07:02;15.10;99.90
16315;DHT22;8266;52.150;4.768;2023-04-25T14:09:30;15.20;99.90
16315;DHT22;8266;52.150;4.768;2023-04-25T14:11:57;15.20;99.90
16315;DHT22;8266;52.150;4.768;2023-04-25T14:14:24;15.20;99.90
16315;DHT22;8266;52.150;4.768;2023-04-25T14:16:53;15.30;99.90
16315;DHT22;8266;52.150;4.768;2023-04-25T14:19:20;15.40;99.90
16315;DHT22;8266;52.150;4.768;2023-04-25T14:21:47;15.50;99.90
16315;DHT22;8266;52.150;4.768;2023-04-25T14:24:14;15.60;99.90
16315;DHT22;8266;52.150;4.768;2023-04-25T14:26:41;15.70;99.90
16315;DHT22;8266;52.150;4.768;2023-04-25T14:29:09;15.80;99.90
16315;DHT22;8266;52.150;4.768;2023-04-25T14:31:37;15.80;99.90
16315;DHT22;8266;52.150;4.768;2023-04-25T14:34:07;15.80;99.90
16315;DHT22;8266;52.150;4.768;2023-04-25T14:36:35;15.70;99.90
16315;DHT22;8266;52.150;4.768;2023-04-25T14:39:02;15.60;99.90
16315;DHT22;8266;52.150;4.768;2023-04-25T14:41:30;15.60;99.90
16315;DHT22;8266;52.150;4.768;2023-04-25T14:43:57;15.60;99.90
16315;DHT22;8266;52.150;4.768;2023-04-25T14:46:24;15.50;99.90
16315;DHT22;8266;52.150;4.768;2023-04-25T14:48:51;15.50;99.90
16315;DHT22;8266;52.150;4.768;2023-04-25T14:51:20;15.40;99.90
16315;DHT22;8266;52.150;4.768;2023-04-25T14:53:47;15.40;99.90
16315;DHT22;8266;52.150;4.768;2023-04-25T14:56:14;15.30;99.90
16315;DHT22;8266;52.150;4.768;2023-04-25T14:58:41;15.20;99.90
16315;DHT22;8266;52.150;4.768;2023-04-25T15:01:07;15.10;99.90
16315;DHT22;8266;52.150;4.768;2023-04-25T15:03:34;15.00;99.90
16315;DHT22;8266;52.150;4.768;2023-04-25T15:06:01;14.90;99.90
16315;DHT22;8266;52.150;4.768;2023-04-25T15:08:30;14.80;99.90
16315;DHT22;8266;52.150;4.768;2023-04-25T15:10:57;14.60;99.90
16315;DHT22;8266;52.150;4.768;2023-04-25T15:13:24;14.50;99.90
16315;DHT22;8266;52.150;4.768;2023-04-25T15:15:52;14.40;99.90
16315;DHT22;8266;52.150;4.768;2023-04-25T15:18:21;14.30;99.90
16315;DHT22;8266;52.150;4.768;2023-04-25T15:20:49;14.20;99.90
16315;DHT22;8266;52.150;4.768;2023-04-25T15:23:17;14.10;99.90
16315;DHT22;8266;52.150;4.768;2023-04-25T15:25:45;14.00;99.90
16315;DHT22;8266;52.150;4.768;2023-04-25T15:28:12;14.00;99.90
16315;DHT22;8266;52.150;4.768;2023-04-25T15:30:41;13.90;99.90
16315;DHT22;8266;52.150;4.768;2023-04-25T15:33:08;13.80;99.90
16315;DHT22;8266;52.150;4.768;2023-04-25T15:35:35;13.80;99.90
16315;DHT22;8266;52.150;4.768;2023-04-25T15:38:02;13.80;99.90
16315;DHT22;8266;52.150;4.768;2023-04-25T15:40:29;13.80;99.90
16315;DHT22;8266;52.150;4.768;2023-04-25T15:42:57;13.90;99.90
16315;DHT22;8266;52.150;4.768;2023-04-25T15:45:25;13.90;99.90
16315;DHT22;8266;52.150;4.768;2023-04-25T15:47:54;14.00;99.90
16315;DHT22;8266;52.150;4.768;2023-04-25T15:50:23;14.10;99.90
16315;DHT22;8266;52.150;4.768;2023-04-25T15:52:50;14.10;99.90
16315;DHT22;8266;52.150;4.768;2023-04-25T15:55:18;14.10;99.90
16315;DHT22;8266;52.150;4.768;2023-04-25T15:57:48;14.10;99.90